Time;durP1;ratioP1;P1;durP2;ratioP2;P2;SDS_P1;SDS_P2;PMS_P1;PMS_P2;Temp;Humidity;BMP_temperature;BMP_pressure;BME280_temperature;BME280_humidity;BME280_pressure;Samples;Min_cycle;Max_cycle;Signal;HPM_P1;HPM_P2
2021/09/25 00:02:12;;;;;;;9.50;2.30;;;;;;;14.97;74.11;100186.58;113392;1196;22434;-63
2021/09/25 00:04:44;;;;;;;6.80;1.90;;;;;;;14.98;74.17;100188.30;113561;1196;22437;-64
2021/09/25 00:07:15;;;;;;;6.30;2.00;;;;;;;14.98;74.29;100185.14;113627;1196;24131;-63
2021/09/25 00:09:46;;;;;;;9.40;1.70;;;;;;;14.98;74.40;100183.80;113482;1190;25114;-63
2021/09/25 00:12:19;;;;;;;8.30;1.80;;;;;;;14.99;74.24;100185.04;113145;1196;24126;-64
2021/09/25 00:14:50;;;;;;;9.90;1.70;;;;;;;15.00;74.43;100181.56;113202;1196;22438;-63
2021/09/25 00:17:21;;;;;;;8.60;2.00;;;;;;;15.01;74.37;100178.34;113293;1196;22441;-63
2021/09/25 00:19:52;;;;;;;7.00;1.60;;;;;;;15.02;74.60;100173.22;113520;1193;24047;-63
2021/09/25 00:22:24;;;;;;;8.50;1.70;;;;;;;15.03;74.45;100175.21;113651;1196;22432;-63
2021/09/25 00:24:55;;;;;;;9.00;2.40;;;;;;;15.03;74.47;100172.20;113582;1196;22436;-63
2021/09/25 00:27:26;;;;;;;8.60;1.80;;;;;;;15.04;74.62;100168.16;113315;1196;25021;-63
2021/09/25 00:29:59;;;;;;;10.30;2.00;;;;;;;15.04;74.76;100168.67;113586;1196;24154;-64
2021/09/25 00:32:30;;;;;;;6.40;1.70;;;;;;;15.04;74.61;100167.05;113383;1190;22734;-64
2021/09/25 00:35:01;;;;;;;8.10;2.00;;;;;;;15.04;74.86;100169.02;113244;1196;22430;-63
2021/09/25 00:37:33;;;;;;;8.40;1.90;;;;;;;15.04;74.86;100165.14;113242;1196;22436;-63
2021/09/25 00:40:16;;;;;;;11.10;2.70;;;;;;;15.05;74.97;100162.28;113370;1196;22468;-63
2021/09/25 00:42:48;;;;;;;7.60;1.70;;;;;;;15.05;75.01;100165.09;113693;1196;22513;-63
2021/09/25 00:45:22;;;;;;;7.90;2.20;;;;;;;15.05;75.08;100162.14;113423;1189;24050;-64
2021/09/25 00:47:53;;;;;;;9.40;2.40;;;;;;;15.05;75.13;100163.66;113444;1196;24176;-63
2021/09/25 00:50:29;;;;;;;9.00;2.50;;;;;;;15.05;75.21;100161.58;113585;1196;22435;-64
2021/09/25 00:53:01;;;;;;;8.60;2.20;;;;;;;15.06;75.19;100163.92;113377;1190;25126;-63
2021/09/25 00:55:32;;;;;;;6.80;1.80;;;;;;;15.06;75.10;100162.18;113915;1196;25105;-63
2021/09/25 00:58:06;;;;;;;9.50;1.90;;;;;;;15.07;75.15;100162.33;113500;1190;22535;-65
2021/09/25 01:00:39;;;;;;;9.60;2.00;;;;;;;15.09;75.15;100157.83;113431;1196;23152;-63
2021/09/25 01:03:10;;;;;;;10.20;2.50;;;;;;;15.09;75.33;100165.91;113606;1196;22409;-63
2021/09/25 01:05:44;;;;;;;8.30;2.60;;;;;;;15.09;75.43;100166.07;113285;1196;25055;-64
2021/09/25 01:08:15;;;;;;;9.30;2.20;;;;;;;15.10;75.39;100169.50;113135;1196;25175;-64
2021/09/25 01:10:46;;;;;;;8.70;2.30;;;;;;;15.11;75.46;100169.20;113498;1190;22435;-63
2021/09/25 01:13:17;;;;;;;9.70;2.40;;;;;;;15.11;75.60;100166.02;113270;1196;22429;-67
2021/09/25 01:15:49;;;;;;;11.00;2.60;;;;;;;15.11;75.52;100169.23;113353;1196;24132;-64
2021/09/25 01:18:21;;;;;;;11.60;2.20;;;;;;;15.12;75.63;100168.63;113215;1196;25489;-64
2021/09/25 01:20:51;;;;;;;11.80;2.50;;;;;;;15.11;75.71;100170.98;113161;1196;25020;-63
2021/09/25 01:23:22;;;;;;;9.10;2.20;;;;;;;15.12;75.51;100168.63;113190;1180;24116;-63
2021/09/25 01:25:53;;;;;;;8.10;2.20;;;;;;;15.13;75.53;100178.70;113242;1189;22884;-64
2021/09/25 01:28:24;;;;;;;9.40;2.10;;;;;;;15.13;75.59;100177.91;113326;1196;25105;-63
2021/09/25 01:30:56;;;;;;;8.20;2.20;;;;;;;15.13;75.69;100180.55;113203;1196;24047;-64
2021/09/25 01:33:30;;;;;;;11.40;2.40;;;;;;;15.14;75.68;100180.18;113450;1190;25204;-63
2021/09/25 01:36:01;;;;;;;8.00;2.10;;;;;;;15.14;75.66;100179.52;113580;1190;23585;-63
2021/09/25 01:38:34;;;;;;;8.50;2.50;;;;;;;15.16;75.67;100180.13;113472;1190;22433;-65
2021/09/25 01:41:08;;;;;;;7.80;2.40;;;;;;;15.16;75.71;100178.54;113320;1196;25060;-63
2021/09/25 01:43:40;;;;;;;9.00;2.60;;;;;;;15.16;75.78;100179.62;113430;1196;25059;-64
2021/09/25 01:46:10;;;;;;;9.20;2.80;;;;;;;15.15;75.76;100179.77;113403;1196;25137;-64
2021/09/25 01:48:41;;;;;;;8.30;2.60;;;;;;;15.14;75.77;100175.99;113230;1196;22420;-63
2021/09/25 01:51:12;;;;;;;11.80;2.20;;;;;;;15.15;75.79;100178.28;113284;1190;22433;-63
2021/09/25 01:53:44;;;;;;;8.00;2.60;;;;;;;15.15;75.95;100173.53;113168;1196;24121;-63
2021/09/25 01:56:16;;;;;;;8.20;2.20;;;;;;;15.14;75.93;100169.91;113189;1196;25340;-63
2021/09/25 01:58:47;;;;;;;9.00;2.10;;;;;;;15.13;75.89;100169.39;113127;1190;22433;-63
2021/09/25 02:01:18;;;;;;;10.50;2.90;;;;;;;15.12;75.94;100176.66;113229;1190;25133;-64
2021/09/25 02:03:50;;;;;;;9.40;2.40;;;;;;;15.12;76.04;100173.75;113157;1196;24081;-63
2021/09/25 02:06:21;;;;;;;8.20;2.00;;;;;;;15.12;75.98;100169.65;113489;1190;22448;-63
2021/09/25 02:08:53;;;;;;;10.30;2.30;;;;;;;15.12;76.03;100171.95;113314;1196;22433;-63
2021/09/25 02:11:27;;;;;;;8.60;2.20;;;;;;;15.11;76.07;100166.28;113313;1196;22429;-64
2021/09/25 02:13:58;;;;;;;7.70;1.80;;;;;;;15.10;76.06;100162.13;113416;1196;22448;-64
2021/09/25 02:16:29;;;;;;;8.50;2.00;;;;;;;15.10;76.15;100157.29;113263;1196;25136;-63
2021/09/25 02:19:00;;;;;;;7.30;2.20;;;;;;;15.10;76.09;100161.48;113098;1196;25093;-63
2021/09/25 02:21:31;;;;;;;9.80;2.50;;;;;;;15.09;76.27;100164.02;113307;1190;22426;-63
2021/09/25 02:24:02;;;;;;;9.90;2.70;;;;;;;15.08;76.21;100170.72;113419;1196;25150;-64
2021/09/25 02:26:34;;;;;;;9.00;2.50;;;;;;;15.08;76.24;100173.89;113174;1196;22450;-64
2021/09/25 02:29:05;;;;;;;7.00;1.90;;;;;;;15.07;76.23;100171.59;113155;1196;24154;-63
2021/09/25 02:31:36;;;;;;;9.00;2.30;;;;;;;15.07;76.47;100171.38;113147;1196;25157;-66
2021/09/25 02:34:07;;;;;;;10.40;2.60;;;;;;;15.06;76.35;100170.31;113158;1190;26283;-63
2021/09/25 02:36:41;;;;;;;12.30;3.20;;;;;;;15.05;76.53;100170.00;113128;1196;22515;-64
2021/09/25 02:39:12;;;;;;;8.00;2.10;;;;;;;15.04;76.68;100174.39;113053;1196;22430;-63
2021/09/25 02:41:43;;;;;;;7.80;2.40;;;;;;;15.04;76.55;100173.08;112988;1196;24922;-63
2021/09/25 02:44:14;;;;;;;8.70;2.30;;;;;;;15.03;76.63;100178.17;113158;1196;22525;-63
2021/09/25 02:46:47;;;;;;;8.90;2.20;;;;;;;15.01;76.72;100176.85;113096;1196;22478;-63
2021/09/25 02:49:20;;;;;;;8.40;2.20;;;;;;;15.00;76.71;100179.81;113092;1190;22406;-65
2021/09/25 02:51:51;;;;;;;9.10;2.60;;;;;;;15.00;76.78;100182.07;113165;1196;22469;-63
2021/09/25 02:54:23;;;;;;;6.30;2.00;;;;;;;15.01;76.70;100180.69;113237;1190;24079;-63
2021/09/25 02:56:54;;;;;;;9.20;2.20;;;;;;;15.00;76.78;100182.89;113211;1196;25128;-64
2021/09/25 02:59:26;;;;;;;11.40;2.20;;;;;;;15.02;76.82;100178.44;113166;1190;22729;-63
2021/09/25 03:01:57;;;;;;;9.70;2.40;;;;;;;15.02;76.81;100184.79;113212;1196;24066;-63
2021/09/25 03:04:28;;;;;;;10.80;1.80;;;;;;;15.01;76.88;100185.34;113290;1196;25020;-63
2021/09/25 03:06:59;;;;;;;8.00;2.30;;;;;;;14.99;76.82;100187.14;113094;1189;22526;-64
2021/09/25 03:09:30;;;;;;;9.40;2.60;;;;;;;14.99;77.01;100185.23;113144;1196;25306;-63
2021/09/25 03:12:01;;;;;;;5.60;1.90;;;;;;;14.99;76.86;100183.55;113256;1196;22425;-63
2021/09/25 03:14:31;;;;;;;7.50;2.50;;;;;;;15.00;77.09;100187.18;113108;1198;25181;-64
2021/09/25 03:17:02;;;;;;;7.50;2.40;;;;;;;14.98;77.03;100190.55;113026;1196;22539;-64
2021/09/25 03:19:33;;;;;;;10.30;2.70;;;;;;;14.98;77.12;100186.61;113163;1190;22514;-63
2021/09/25 03:22:05;;;;;;;8.20;2.30;;;;;;;14.98;77.07;100185.91;113108;1190;22446;-63
2021/09/25 03:24:37;;;;;;;9.80;2.80;;;;;;;15.00;77.04;100190.20;113053;1190;22506;-63
2021/09/25 03:27:08;;;;;;;8.10;2.60;;;;;;;15.01;77.10;100191.78;113129;1190;22418;-63
2021/09/25 03:29:39;;;;;;;10.00;2.50;;;;;;;15.02;77.15;100193.63;113272;1196;26378;-63
2021/09/25 03:32:10;;;;;;;9.90;2.90;;;;;;;15.02;77.20;100193.41;113205;1196;22437;-64
2021/09/25 03:34:41;;;;;;;15.00;2.50;;;;;;;15.03;77.05;100194.03;113077;1196;22480;-64
2021/09/25 03:37:12;;;;;;;11.40;2.80;;;;;;;15.02;77.11;100193.00;113093;1196;22999;-64
2021/09/25 03:39:43;;;;;;;13.20;2.80;;;;;;;15.03;77.04;100188.96;113098;1196;22431;-62
2021/09/25 03:42:15;;;;;;;11.10;2.30;;;;;;;15.02;77.17;100191.42;113208;1196;23059;-64
2021/09/25 03:44:47;;;;;;;8.20;2.20;;;;;;;15.01;77.26;100192.34;113281;1196;24083;-63
2021/09/25 03:47:39;;;;;;;10.00;2.90;;;;;;;15.01;77.33;100193.67;113145;1197;25117;-63
2021/09/25 03:50:12;;;;;;;13.00;3.40;;;;;;;15.01;77.28;100192.70;113538;1196;25104;-64
2021/09/25 03:52:43;;;;;;;10.40;2.80;;;;;;;15.02;77.33;100189.48;113461;1196;25346;-64
2021/09/25 03:55:17;;;;;;;12.80;3.00;;;;;;;15.02;77.31;100192.65;113219;1196;24606;-64
2021/09/25 03:57:47;;;;;;;12.10;3.30;;;;;;;15.01;77.29;100192.35;113264;1190;22440;-63
2021/09/25 04:00:20;;;;;;;12.00;2.60;;;;;;;15.01;77.23;100195.00;113460;1180;22437;-64
2021/09/25 04:02:51;;;;;;;7.90;2.70;;;;;;;15.02;77.28;100194.48;113624;1196;22450;-63
2021/09/25 04:05:23;;;;;;;8.40;3.00;;;;;;;15.02;77.41;100195.36;113417;1196;22748;-64
2021/09/25 04:07:54;;;;;;;9.80;2.50;;;;;;;15.02;77.41;100190.55;113216;1197;25058;-64
2021/09/25 04:10:29;;;;;;;8.40;2.60;;;;;;;15.02;77.44;100194.28;113167;1196;22436;-64
2021/09/25 04:13:11;;;;;;;10.50;3.20;;;;;;;15.03;77.44;100195.11;113315;1189;22437;-64
2021/09/25 04:15:42;;;;;;;9.00;3.50;;;;;;;15.04;77.50;100199.39;113004;1196;22494;-63
2021/09/25 04:18:14;;;;;;;8.70;2.70;;;;;;;15.04;77.44;100196.93;113211;1196;22471;-63
2021/09/25 04:20:45;;;;;;;12.40;2.80;;;;;;;15.06;77.45;100197.41;113212;1196;22446;-64
2021/09/25 04:23:18;;;;;;;8.90;2.50;;;;;;;15.06;77.45;100196.43;113070;1196;26282;-63
2021/09/25 04:25:52;;;;;;;9.60;2.60;;;;;;;15.06;77.47;100197.75;113194;1190;24067;-63
2021/09/25 04:28:26;;;;;;;9.00;2.50;;;;;;;15.06;77.49;100199.96;113152;1196;22430;-63
2021/09/25 04:30:57;;;;;;;11.30;2.90;;;;;;;15.08;77.40;100198.32;113092;1197;25054;-62
2021/09/25 04:33:31;;;;;;;14.80;3.40;;;;;;;15.07;77.47;100193.77;113196;1196;22443;-64
2021/09/25 04:36:02;;;;;;;14.80;3.20;;;;;;;15.07;77.56;100195.27;113319;1196;22449;-63
2021/09/25 04:38:33;;;;;;;10.30;3.20;;;;;;;15.06;77.59;100195.20;113121;1196;25061;-63
2021/09/25 04:41:04;;;;;;;9.70;3.00;;;;;;;15.07;77.67;100196.93;113160;1196;22421;-64
2021/09/25 04:43:35;;;;;;;10.80;2.80;;;;;;;15.06;77.76;100203.53;113259;1196;23759;-64
2021/09/25 04:46:09;;;;;;;10.20;3.30;;;;;;;15.06;77.75;100206.45;113186;1196;24977;-64
2021/09/25 04:48:40;;;;;;;10.20;3.40;;;;;;;15.07;77.66;100208.44;113227;1196;22419;-64
2021/09/25 04:51:11;;;;;;;11.10;3.40;;;;;;;15.07;77.75;100211.30;113226;1196;22436;-64
2021/09/25 04:53:42;;;;;;;8.50;3.00;;;;;;;15.08;77.76;100206.92;113201;1196;22511;-64
2021/09/25 04:56:13;;;;;;;9.20;3.10;;;;;;;15.08;77.74;100208.20;113065;1196;22422;-63
2021/09/25 04:58:44;;;;;;;14.40;3.50;;;;;;;15.08;77.85;100206.09;113136;1190;22537;-64
2021/09/25 05:01:15;;;;;;;10.30;3.50;;;;;;;15.09;77.86;100210.54;113311;1196;24084;-64
2021/09/25 05:03:46;;;;;;;10.50;3.10;;;;;;;15.09;77.90;100208.81;113517;1189;22439;-64
2021/09/25 05:06:17;;;;;;;10.10;3.50;;;;;;;15.10;77.94;100204.46;113200;1189;24047;-64
2021/09/25 05:08:47;;;;;;;10.20;3.30;;;;;;;15.11;77.93;100205.84;113144;1196;22423;-64
2021/09/25 05:11:19;;;;;;;10.50;3.80;;;;;;;15.13;77.95;100203.48;113130;1190;22526;-63
2021/09/25 05:13:50;;;;;;;11.40;4.10;;;;;;;15.14;77.99;100200.16;113078;1196;22435;-64
2021/09/25 05:16:23;;;;;;;9.70;3.40;;;;;;;15.16;77.90;100205.34;113036;1196;25022;-64
2021/09/25 05:18:54;;;;;;;10.50;3.40;;;;;;;15.17;78.02;100206.05;113565;1196;22423;-63
2021/09/25 05:21:24;;;;;;;12.00;3.40;;;;;;;15.19;78.03;100207.12;113240;1190;25064;-64
2021/09/25 05:23:56;;;;;;;12.70;4.00;;;;;;;15.21;78.05;100210.64;113311;1196;23848;-64
2021/09/25 05:26:26;;;;;;;10.90;3.90;;;;;;;15.22;78.07;100211.41;113130;1196;22411;-64
2021/09/25 05:28:57;;;;;;;12.30;4.10;;;;;;;15.24;78.14;100216.27;113068;1196;22426;-64
2021/09/25 05:31:28;;;;;;;10.80;4.30;;;;;;;15.25;78.15;100218.11;113556;1190;22427;-66
2021/09/25 05:34:00;;;;;;;15.60;4.70;;;;;;;15.27;78.08;100215.45;113338;1196;22501;-63
2021/09/25 05:36:32;;;;;;;15.40;4.40;;;;;;;15.30;78.25;100219.17;113162;1196;22437;-63
2021/09/25 05:39:04;;;;;;;11.60;4.50;;;;;;;15.32;78.19;100218.89;113190;1196;22453;-64
2021/09/25 05:41:36;;;;;;;16.60;6.00;;;;;;;15.34;78.08;100223.94;113029;1174;22963;-64
2021/09/25 05:44:07;;;;;;;9.40;4.20;;;;;;;15.36;78.34;100229.91;113251;1189;24098;-64
2021/09/25 05:46:45;;;;;;;16.60;5.30;;;;;;;15.38;78.25;100231.90;113411;1189;25051;-64
2021/09/25 05:49:16;;;;;;;12.20;4.80;;;;;;;15.42;78.09;100237.39;113484;1196;22432;-65
2021/09/25 05:51:47;;;;;;;12.60;5.10;;;;;;;15.45;78.26;100238.17;113289;1196;26279;-64
2021/09/25 05:54:18;;;;;;;10.80;4.90;;;;;;;15.48;78.13;100240.12;113473;1195;25064;-64
2021/09/25 05:56:49;;;;;;;12.10;4.60;;;;;;;15.51;78.11;100240.78;113187;1196;22444;-64
2021/09/25 05:59:20;;;;;;;11.60;4.30;;;;;;;15.54;78.14;100239.91;113201;1196;24051;-63
2021/09/25 06:01:53;;;;;;;14.40;4.70;;;;;;;15.57;78.07;100243.69;113327;1189;22416;-62
2021/09/25 06:07:15;;;;;;;14.10;5.60;;;;;;;15.65;78.09;100238.36;113161;1196;25113;-64
2021/09/25 06:09:47;;;;;;;10.90;4.30;;;;;;;15.68;78.10;100238.09;113198;1189;22433;-63
2021/09/25 06:12:17;;;;;;;11.90;5.10;;;;;;;15.72;78.03;100239.58;113022;1197;22426;-63
2021/09/25 06:15:20;;;;;;;12.60;4.50;;;;;;;15.75;78.01;100236.95;113173;1196;24157;-64
2021/09/25 06:17:51;;;;;;;14.00;4.90;;;;;;;15.80;78.12;100237.25;113417;1196;22478;-62
2021/09/25 06:20:23;;;;;;;10.70;4.20;;;;;;;15.84;78.02;100240.27;113318;1196;22453;-63
2021/09/25 06:22:54;;;;;;;12.30;4.10;;;;;;;15.88;78.02;100240.81;113450;1196;25352;-62
2021/09/25 06:25:25;;;;;;;11.50;4.30;;;;;;;15.92;78.06;100247.11;113443;1189;22409;-62
2021/09/25 06:27:59;;;;;;;12.30;3.80;;;;;;;15.96;77.97;100247.80;113103;1196;22433;-62
2021/09/25 06:30:30;;;;;;;12.30;3.70;;;;;;;16.01;77.90;100249.79;113255;1189;26334;-62
2021/09/25 06:33:02;;;;;;;10.70;4.30;;;;;;;16.05;77.82;100255.36;113223;1189;22443;-63
2021/09/25 06:35:34;;;;;;;10.80;4.40;;;;;;;16.10;77.87;100259.85;113316;1196;22436;-62
2021/09/25 06:38:07;;;;;;;16.10;4.80;;;;;;;16.13;77.84;100258.05;113488;1196;24157;-63
2021/09/25 06:40:38;;;;;;;10.30;4.10;;;;;;;16.17;77.66;100257.41;113575;1190;25107;-63
2021/09/25 06:43:09;;;;;;;9.30;3.60;;;;;;;16.22;77.67;100258.70;113408;1190;22431;-63
2021/09/25 06:45:40;;;;;;;13.40;5.30;;;;;;;16.27;77.53;100256.67;113252;1189;24074;-63
2021/09/25 06:48:11;;;;;;;11.00;3.80;;;;;;;16.31;77.58;100259.22;113098;1174;22535;-62
2021/09/25 06:50:42;;;;;;;11.20;3.80;;;;;;;16.35;77.46;100258.27;113104;1196;24119;-62
2021/09/25 06:53:13;;;;;;;14.10;5.40;;;;;;;16.39;77.53;100259.34;113124;1196;22872;-63
2021/09/25 06:55:44;;;;;;;12.50;4.50;;;;;;;16.43;77.37;100258.55;113263;1191;24338;-62
2021/09/25 06:58:16;;;;;;;11.00;4.30;;;;;;;16.47;77.37;100263.13;113194;1196;23196;-63
2021/09/25 07:00:47;;;;;;;10.00;3.30;;;;;;;16.50;77.35;100266.58;113167;1196;22448;-63
2021/09/25 07:03:19;;;;;;;10.20;3.80;;;;;;;16.54;77.17;100259.59;113170;1190;22557;-62
2021/09/25 07:05:50;;;;;;;9.30;3.70;;;;;;;16.58;77.18;100260.05;113129;1196;22435;-65
2021/09/25 07:08:31;;;;;;;;;;;;;;;;;;;;;
2021/09/25 07:11:02;;;;;;;12.70;4.20;;;;;;;16.63;76.85;100264.77;113372;1196;22440;-65
2021/09/25 07:13:33;;;;;;;10.60;3.60;;;;;;;16.66;76.84;100269.13;113040;1196;22455;-65
2021/09/25 07:16:05;;;;;;;10.10;4.10;;;;;;;16.69;76.78;100270.39;113130;1196;22434;-65
2021/09/25 07:18:37;;;;;;;11.40;3.60;;;;;;;16.73;76.75;100272.73;113446;1196;22453;-65
2021/09/25 07:21:09;;;;;;;14.20;4.50;;;;;;;16.75;76.69;100274.30;113199;1196;22763;-64
2021/09/25 07:23:44;;;;;;;11.90;4.60;;;;;;;16.78;76.64;100279.56;113250;1196;22433;-65
2021/09/25 07:26:15;;;;;;;11.70;3.70;;;;;;;16.80;76.52;100278.73;113243;1189;23781;-65
2021/09/25 07:28:47;;;;;;;12.40;3.90;;;;;;;16.83;76.43;100277.33;113329;1196;25139;-64
2021/09/25 07:31:18;;;;;;;12.60;4.30;;;;;;;16.86;76.42;100277.98;113232;1196;25261;-64
2021/09/25 07:33:50;;;;;;;9.40;3.30;;;;;;;16.88;76.22;100276.27;115415;1189;23220;-64
2021/09/25 07:36:26;;;;;;;13.00;4.10;;;;;;;16.91;76.32;100280.60;113279;1196;22436;-60
2021/09/25 07:39:00;;;;;;;12.00;3.90;;;;;;;16.94;76.14;100284.29;113092;1196;25010;-62
2021/09/25 07:41:33;;;;;;;13.40;4.10;;;;;;;16.96;76.30;100280.74;113432;1196;25104;-61
2021/09/25 07:44:04;;;;;;;10.90;3.20;;;;;;;16.99;76.18;100280.83;113381;1196;22559;-60
2021/09/25 07:46:36;;;;;;;12.80;4.10;;;;;;;17.02;76.08;100285.41;113154;1190;22408;-60
2021/09/25 07:49:07;;;;;;;11.10;2.80;;;;;;;17.05;75.89;100283.91;113110;1195;24067;-61
2021/09/25 07:51:38;;;;;;;11.30;3.60;;;;;;;17.08;75.88;100288.41;113252;1190;23625;-61
2021/09/25 07:54:10;;;;;;;9.60;3.20;;;;;;;17.11;75.73;100289.46;113423;1195;23636;-60
2021/09/25 07:56:41;;;;;;;13.00;3.70;;;;;;;17.15;75.64;100290.52;113203;1196;23552;-61
2021/09/25 07:59:12;;;;;;;9.90;3.50;;;;;;;17.17;75.65;100291.06;113073;1195;22427;-62
2021/09/25 08:01:50;;;;;;;11.40;3.40;;;;;;;17.20;75.58;100296.79;113520;1189;22690;-61
2021/09/25 08:04:24;;;;;;;10.10;3.60;;;;;;;17.24;75.50;100295.38;112992;1196;23788;-61
2021/09/25 08:06:58;;;;;;;8.40;3.00;;;;;;;17.27;75.46;100294.17;113290;1190;24147;-62
2021/09/25 08:09:30;;;;;;;8.60;3.30;;;;;;;17.29;75.44;100290.36;113186;1196;22636;-61
2021/09/25 08:12:05;;;;;;;11.00;3.20;;;;;;;17.33;75.36;100293.21;113243;1195;25344;-62
2021/09/25 08:14:37;;;;;;;10.00;2.90;;;;;;;17.36;75.23;100297.59;113373;1196;22429;-62
2021/09/25 08:17:11;;;;;;;10.90;3.20;;;;;;;17.41;75.15;100295.70;113514;1196;24126;-60
2021/09/25 08:19:42;;;;;;;8.50;2.70;;;;;;;17.46;75.11;100290.27;113361;1196;26395;-60
2021/09/25 08:22:13;;;;;;;9.20;3.10;;;;;;;17.52;74.94;100293.44;113194;1196;25269;-59
2021/09/25 08:24:44;;;;;;;10.40;2.70;;;;;;;17.59;74.61;100296.66;113114;1196;22552;-62
2021/09/25 08:27:15;;;;;;;10.40;2.60;;;;;;;17.65;74.68;100297.38;113245;1190;24029;-61
2021/09/25 08:29:46;;;;;;;14.80;3.40;;;;;;;17.71;74.46;100298.98;113540;1190;24069;-61
2021/09/25 08:32:17;;;;;;;11.30;2.50;;;;;;;17.78;74.55;100294.69;113317;1196;22433;-61
2021/09/25 08:34:49;;;;;;;11.20;2.90;;;;;;;17.86;74.17;100297.81;113209;1196;22436;-61
2021/09/25 08:37:20;;;;;;;7.80;2.40;;;;;;;17.92;74.03;100303.54;113402;1196;24124;-61
2021/09/25 08:39:52;;;;;;;9.20;2.70;;;;;;;17.99;73.80;100300.60;113551;1194;23685;-62
2021/09/25 08:42:23;;;;;;;9.30;2.90;;;;;;;18.04;73.70;100300.02;113163;1190;22428;-61
2021/09/25 08:44:54;;;;;;;9.10;3.10;;;;;;;18.10;73.70;100304.70;113176;1189;22464;-61
2021/09/25 08:47:25;;;;;;;10.10;3.10;;;;;;;18.17;73.46;100308.21;113359;1196;22718;-61
2021/09/25 08:49:56;;;;;;;7.90;2.40;;;;;;;18.23;73.18;100307.94;113253;1196;22434;-60
2021/09/25 08:52:30;;;;;;;8.10;2.30;;;;;;;18.29;73.07;100301.40;113328;1196;24842;-66
2021/09/25 08:55:01;;;;;;;11.10;2.20;;;;;;;18.37;73.06;100301.15;113541;1190;25199;-61
2021/09/25 08:57:32;;;;;;;6.80;2.00;;;;;;;18.44;72.63;100304.96;113237;1190;22996;-60
2021/09/25 09:00:43;;;;;;;7.90;2.20;;;;;;;18.52;72.57;100306.55;113246;1196;23085;-61
2021/09/25 09:03:32;;;;;;;8.20;2.10;;;;;;;18.61;72.29;100311.48;113138;1196;22420;-60
2021/09/25 09:06:18;;;;;;;9.50;2.30;;;;;;;18.69;72.13;100314.36;113311;1196;25261;-60
2021/09/25 09:08:51;;;;;;;8.70;2.00;;;;;;;18.77;71.61;100321.20;113348;1190;22493;-61
2021/09/25 09:11:25;;;;;;;7.50;2.10;;;;;;;18.82;71.24;100316.26;113069;1189;25105;-60
2021/09/25 09:14:01;;;;;;;8.30;1.80;;;;;;;18.88;71.11;100320.89;113544;1196;22501;-59
2021/09/25 09:16:33;;;;;;;9.10;2.20;;;;;;;18.94;70.79;100316.66;113441;1196;25201;-60
2021/09/25 09:19:04;;;;;;;7.40;1.90;;;;;;;19.01;70.70;100316.41;113888;1196;25020;-60
2021/09/25 09:21:37;;;;;;;6.10;1.90;;;;;;;19.07;69.77;100329.18;113288;1196;22420;-62
2021/09/25 09:24:14;;;;;;;6.20;1.50;;;;;;;19.09;69.48;100332.04;113401;1189;22890;-63
2021/09/25 09:26:45;;;;;;;7.50;1.60;;;;;;;19.11;69.33;100333.81;113153;1190;22454;-62
2021/09/25 09:29:16;;;;;;;8.20;2.00;;;;;;;19.12;69.30;100333.73;113085;1196;24208;-66
2021/09/25 09:34:47;;;;;;;7.60;2.00;;;;;;;19.23;69.19;100328.38;113176;1196;24074;-62
2021/09/25 09:37:21;;;;;;;8.10;1.60;;;;;;;19.30;69.28;100332.19;113083;1196;22494;-62
2021/09/25 09:40:04;;;;;;;8.40;2.00;;;;;;;19.38;68.69;100330.09;113089;1196;22455;-62
2021/09/25 09:42:44;;;;;;;5.80;1.70;;;;;;;19.44;68.45;100334.02;113072;1189;24166;-60
2021/09/25 09:45:25;;;;;;;4.60;1.40;;;;;;;19.49;68.04;100335.84;113166;1189;22430;-62
2021/09/25 09:47:59;;;;;;;7.40;2.00;;;;;;;19.53;67.86;100337.42;113057;1196;22959;-60
2021/09/25 09:50:31;;;;;;;7.80;2.20;;;;;;;19.56;67.88;100337.10;113171;1195;22437;-61
2021/09/25 09:53:14;;;;;;;5.90;1.80;;;;;;;19.60;67.38;100341.38;113218;1190;25041;-61
2021/09/25 09:55:45;;;;;;;7.10;1.90;;;;;;;19.63;67.22;100347.13;113177;1196;23307;-63
2021/09/25 09:58:16;;;;;;;8.20;2.10;;;;;;;19.66;66.86;100344.58;113225;1196;22446;-62
2021/09/25 10:00:47;;;;;;;5.90;1.60;;;;;;;19.69;67.19;100348.23;113265;1189;24032;-63
2021/09/25 10:03:20;;;;;;;9.60;1.90;;;;;;;19.73;66.71;100349.51;113627;1196;24014;-62
2021/09/25 10:05:52;;;;;;;7.00;2.00;;;;;;;19.76;66.43;100352.08;113397;1196;22478;-62
2021/09/25 10:08:23;;;;;;;8.20;1.70;;;;;;;19.78;66.49;100357.02;113147;1189;23567;-63
2021/09/25 10:10:54;;;;;;;7.90;1.70;;;;;;;19.81;66.27;100355.91;113169;1189;24154;-62
2021/09/25 10:13:27;;;;;;;5.40;1.50;;;;;;;19.84;66.24;100356.02;113124;1196;22446;-61
2021/09/25 10:15:58;;;;;;;7.60;1.90;;;;;;;19.84;66.08;100358.41;113194;1196;22441;-62
2021/09/25 10:18:29;;;;;;;6.10;1.40;;;;;;;19.86;65.63;100350.20;113119;1196;22982;-63
2021/09/25 10:21:01;;;;;;;7.40;1.50;;;;;;;19.88;65.43;100353.84;113182;1196;24105;-62
2021/09/25 10:23:34;;;;;;;6.10;1.70;;;;;;;19.89;65.65;100347.70;113174;1189;23206;-63
2021/09/25 10:26:06;;;;;;;7.40;1.70;;;;;;;19.91;65.07;100354.40;113600;1196;24155;-62
2021/09/25 10:28:38;;;;;;;7.40;1.80;;;;;;;19.94;65.16;100354.39;113205;1196;24125;-60
2021/09/25 10:31:18;;;;;;;8.20;1.70;;;;;;;19.99;64.92;100348.89;113329;1196;22420;-60
2021/09/25 10:34:01;;;;;;;;;;;;;;;20.06;64.83;100353.14;113184;1193;22782;-61
2021/09/25 10:36:41;;;;;;;8.60;1.70;;;;;;;20.12;65.07;100352.84;113236;1196;22419;-61
2021/09/25 10:39:29;;;;;;;5.50;1.90;;;;;;;20.18;64.96;100355.77;113668;1195;23646;-61
2021/09/25 10:42:03;;;;;;;8.30;1.90;;;;;;;20.22;63.75;100357.89;113381;1196;25129;-61
2021/09/25 10:44:42;;;;;;;7.30;1.70;;;;;;;20.23;63.82;100359.38;113192;1196;22427;-60
2021/09/25 10:47:15;;;;;;;8.80;1.90;;;;;;;20.24;63.55;100362.87;113185;1196;22440;-61
2021/09/25 10:49:53;;;;;;;4.70;1.30;;;;;;;20.28;64.03;100360.89;113317;1196;24205;-61
2021/09/25 10:52:41;;;;;;;8.50;1.80;;;;;;;20.33;63.85;100360.17;113428;1190;23797;-61
2021/09/25 10:55:27;;;;;;;6.30;1.70;;;;;;;20.37;63.60;100358.91;113017;1196;22581;-61
2021/09/25 10:58:20;;;;;;;6.10;1.60;;;;;;;20.39;63.01;100362.20;113531;1189;22424;-62
2021/09/25 11:01:09;;;;;;;6.60;1.80;;;;;;;20.43;62.90;100361.00;113339;1196;25098;-61
2021/09/25 11:04:04;;;;;;;5.80;1.60;;;;;;;20.47;63.12;100362.63;113211;1196;24205;-62
2021/09/25 11:06:43;;;;;;;6.30;1.80;;;;;;;20.52;62.72;100361.02;113213;1196;24069;-61
2021/09/25 11:09:32;;;;;;;7.80;1.70;;;;;;;20.55;62.71;100362.10;113309;1196;22524;-61
2021/09/25 11:12:09;;;;;;;3.80;1.10;;;;;;;20.61;62.72;100361.85;113411;1196;24115;-62
2021/09/25 11:14:51;;;;;;;6.60;1.60;;;;;;;20.65;62.60;100356.30;113197;1196;24421;-61
2021/09/25 11:17:30;;;;;;;5.30;1.30;;;;;;;20.69;62.54;100357.38;112871;1189;74968;-62
2021/09/25 11:20:03;;;;;;;6.60;1.30;;;;;;;20.74;62.50;100360.58;112995;1198;22644;-61
2021/09/25 11:22:38;;;;;;;7.00;1.50;;;;;;;20.80;61.87;100363.46;112956;1190;24071;-63
2021/09/25 11:25:12;;;;;;;5.10;1.40;;;;;;;20.82;61.53;100361.34;113226;1190;25136;-61
2021/09/25 11:27:45;;;;;;;10.30;1.80;;;;;;;20.83;61.31;100364.94;113499;1192;24146;-61
2021/09/25 11:30:19;;;;;;;7.20;1.60;;;;;;;20.84;61.55;100362.70;113408;1198;22509;-61
2021/09/25 11:32:52;;;;;;;6.10;2.00;;;;;;;20.86;61.08;100361.61;113267;1190;23210;-61
2021/09/25 11:35:27;;;;;;;6.30;1.70;;;;;;;20.86;60.41;100361.16;113074;1190;25115;-63
2021/09/25 11:38:01;;;;;;;7.30;1.60;;;;;;;20.83;60.62;100357.20;112920;1198;22472;-62
2021/09/25 11:40:36;;;;;;;5.60;1.30;;;;;;;20.84;60.61;100356.71;113139;1190;25019;-60
2021/09/25 11:43:10;;;;;;;7.90;1.60;;;;;;;20.88;60.48;100354.00;112961;1198;22431;-60
2021/09/25 11:45:43;;;;;;;5.10;1.40;;;;;;;20.90;60.31;100353.08;113213;1198;23640;-59
2021/09/25 11:48:16;;;;;;;7.50;1.40;;;;;;;20.92;60.22;100357.63;113257;1190;22437;-62